| time (UTC) | temp F | wind direction | speed knots | gust knots | rain 1hr in | rain 24hr in | rain mn in | humidity % | barometer mb |
| 20260503185026 | 63 | 105 | 0.0 | 4.3 | 0.00 | 0.00 | 0.00 | 39 | 1017.1 |
| 20260503184509 | 63 | 338 | 0.0 | 4.3 | 0.00 | 0.00 | 0.00 | 31 | 1017.3 |
| 20260503184056 | 62 | 325 | 0.0 | 2.6 | 0.00 | 0.00 | 0.00 | 31 | 1017.4 |
| 20260503183546 | 62 | 131 | 0.0 | 2.6 | 0.00 | 0.00 | 0.00 | 33 | 1017.4 |
| 20260503183040 | 62 | 204 | 0.9 | 2.6 | 0.00 | 0.00 | 0.00 | 32 | 1017.6 |
| 20260503182532 | 62 | 165 | 0.0 | 1.7 | 0.00 | 0.00 | 0.00 | 32 | 1017.5 |
| 20260503182014 | 62 | 63 | 0.0 | 1.7 | 0.00 | 0.00 | 0.00 | 30 | 1017.5 |
| 20260503181554 | 63 | 321 | 0.0 | 4.3 | 0.00 | 0.00 | 0.00 | 32 | 1017.6 |
| 20260503181047 | 63 | 43 | 1.7 | 4.3 | 0.00 | 0.00 | 0.00 | 29 | 1017.6 |
| 20260503180532 | 64 | 195 | 0.0 | 4.3 | 0.00 | 0.00 | 0.00 | 31 | 1017.7 |
| 20260503180116 | 65 | 315 | 0.0 | 6.1 | 0.00 | 0.00 | 0.00 | 30 | 1017.8 |
| 20260503175547 | 65 | 181 | 0.9 | 6.1 | 0.00 | 0.00 | 0.00 | 30 | 1017.7 |
| 20260503175033 | 64 | 82 | 1.7 | 5.2 | 0.00 | 0.00 | 0.00 | 29 | 1017.9 |
| 20260503174513 | 64 | 215 | 0.0 | 7.8 | 0.00 | 0.00 | 0.00 | 33 | 1018.0 |
| 20260503174010 | 64 | 309 | 0.0 | 7.8 | 0.00 | 0.00 | 0.00 | 30 | 1018.0 |
| 20260503173556 | 64 | 207 | 0.0 | 4.3 | 0.00 | 0.00 | 0.00 | 33 | 1018.1 |
| 20260503173048 | 64 | 108 | 0.9 | 4.3 | 0.00 | 0.00 | 0.00 | 32 | 1018.1 |
| 20260503172533 | 64 | 173 | 0.0 | 7.8 | 0.00 | 0.00 | 0.00 | 35 | 1018.3 |
| 20260503172014 | 64 | 115 | 0.0 | 4.3 | 0.00 | 0.00 | 0.00 | 30 | 1018.4 |
| 20260503171604 | 65 | 86 | 0.0 | 4.3 | 0.00 | 0.00 | 0.00 | 32 | 1018.5 |
| 20260503171052 | 64 | 145 | 0.0 | 4.3 | 0.00 | 0.00 | 0.00 | 32 | 1018.7 |
| 20260503170540 | 64 | 98 | 0.0 | 1.7 | 0.00 | 0.00 | 0.00 | 33 | 1018.8 |
| 20260503150506 | 59 | 314 | 0.0 | 2.6 | 0.00 | 0.00 | 0.00 | 41 | 1020.1 |
| 20260503150104 | 58 | 204 | 0.0 | 2.6 | 0.00 | 0.00 | 0.00 | 44 | 1020.0 |
| 20260503140127 | 54 | 126 | 0.0 | 2.6 | 0.00 | 0.00 | 0.00 | 48 | 1020.0 |
| 20260503131035 | 51 | 332 | 0.0 | 2.6 | 0.00 | 0.00 | 0.00 | 61 | 1020.1 |
| 20260503130530 | 51 | 119 | 0.0 | 2.6 | 0.00 | 0.00 | 0.00 | 62 | 1020.2 |
| 20260503130108 | 50 | 131 | 0.0 | 1.7 | 0.00 | 0.00 | 0.00 | 58 | 1020.2 |
| 20260503110521 | 30 | 204 | 0.0 | 0.0 | 0.00 | 0.00 | 0.00 | 84 | 1019.6 |
| 20260503110104 | 30 | 204 | 0.0 | 0.0 | 0.00 | 0.00 | 0.00 | 84 | 1019.6 |
| 20260503100139 | 30 | 204 | 0.0 | 0.0 | 0.00 | 0.00 | 0.00 | 84 | 1019.1 |
| 20260503081545 | 30 | 204 | 0.0 | 0.0 | 0.00 | 0.00 | 0.00 | 84 | 1019.0 |
| 20260503081032 | 30 | 204 | 0.0 | 0.0 | 0.00 | 0.00 | 0.00 | 84 | 1019.1 |
| 20260503080512 | 30 | 204 | 0.0 | 0.0 | 0.00 | 0.00 | 0.00 | 84 | 1019.1 |
| 20260503080104 | 30 | 204 | 0.0 | 0.0 | 0.00 | 0.00 | 0.00 | 84 | 1019.0 |
| 20260503072521 | 30 | 204 | 0.0 | 0.0 | 0.00 | 0.00 | 0.00 | 84 | 1018.9 |
| 20260503072004 | 30 | 204 | 0.0 | 0.0 | 0.00 | 0.00 | 0.00 | 84 | 1018.9 |
| 20260503071553 | 30 | 204 | 0.0 | 0.0 | 0.00 | 0.00 | 0.00 | 84 | 1018.9 |
| 20260503071040 | 30 | 204 | 0.0 | 0.0 | 0.00 | 0.00 | 0.00 | 84 | 1018.9 |
| 20260503070530 | 30 | 204 | 0.0 | 0.0 | 0.00 | 0.00 | 0.00 | 84 | 1018.9 |
| 20260503070116 | 30 | 204 | 0.0 | 0.0 | 0.00 | 0.00 | 0.00 | 84 | 1019.0 |
| 20260503055042 | 31 | 204 | 0.0 | 0.0 | 0.00 | 0.00 | 0.00 | 83 | 1019.3 |
| 20260503054535 | 31 | 204 | 0.0 | 0.0 | 0.00 | 0.00 | 0.00 | 83 | 1019.3 |
| 20260503054022 | 31 | 204 | 0.0 | 0.0 | 0.00 | 0.00 | 0.00 | 83 | 1019.4 |
| 20260503053503 | 31 | 204 | 0.0 | 0.0 | 0.00 | 0.00 | 0.00 | 83 | 1019.3 |
| 20260503053054 | 32 | 204 | 0.0 | 0.0 | 0.00 | 0.00 | 0.00 | 83 | 1019.3 |
| 20260503052541 | 32 | 204 | 0.0 | 0.0 | 0.00 | 0.00 | 0.00 | 83 | 1019.3 |
| 20260503052031 | 32 | 203 | 0.0 | 0.0 | 0.00 | 0.00 | 0.00 | 83 | 1019.3 |
| 20260503051515 | 32 | 204 | 0.0 | 0.0 | 0.00 | 0.00 | 0.00 | 83 | 1019.3 |
| 20260503051058 | 32 | 204 | 0.0 | 0.0 | 0.00 | 0.00 | 0.00 | 83 | 1019.3 |
| 20260503050543 | 32 | 204 | 0.0 | 0.0 | 0.00 | 0.00 | 0.00 | 83 | 1019.3 |
| 20260503050011 | 32 | 203 | 0.0 | 0.0 | 0.00 | 0.00 | 0.00 | 83 | 1019.3 |
| 20260503045501 | 32 | 204 | 0.0 | 0.0 | 0.00 | 0.00 | 0.00 | 83 | 1019.2 |
| 20260503045053 | 32 | 204 | 0.0 | 0.0 | 0.00 | 0.00 | 0.00 | 83 | 1019.3 |
| 20260503044547 | 32 | 204 | 0.0 | 0.0 | 0.00 | 0.00 | 0.00 | 83 | 1019.3 |
| 20260503044032 | 32 | 204 | 0.0 | 0.0 | 0.00 | 0.00 | 0.00 | 82 | 1019.3 |
| 20260503043520 | 32 | 204 | 0.0 | 0.0 | 0.00 | 0.00 | 0.00 | 82 | 1019.3 |
| 20260503043115 | 32 | 204 | 0.0 | 0.0 | 0.00 | 0.00 | 0.00 | 82 | 1019.3 |
| 20260503042549 | 32 | 204 | 0.0 | 0.0 | 0.00 | 0.00 | 0.00 | 82 | 1019.3 |
| 20260503042039 | 32 | 204 | 0.0 | 0.0 | 0.00 | 0.00 | 0.00 | 82 | 1019.3 |
| 20260503041532 | 32 | 204 | 0.0 | 0.0 | 0.00 | 0.00 | 0.00 | 82 | 1019.2 |
| 20260503041012 | 33 | 204 | 0.0 | 0.0 | 0.00 | 0.00 | 0.00 | 82 | 1019.2 |
| 20260503040603 | 33 | 204 | 0.0 | 0.0 | 0.00 | 0.00 | 0.00 | 82 | 1019.3 |
| 20260503040056 | 33 | 204 | 0.0 | 0.0 | 0.00 | 0.00 | 0.00 | 82 | 1019.3 |
| 20260503035520 | 33 | 204 | 0.0 | 0.0 | 0.00 | 0.00 | 0.00 | 81 | 1019.3 |
| 20260503035102 | 33 | 204 | 0.0 | 0.0 | 0.00 | 0.00 | 0.00 | 81 | 1019.3 |
| 20260503034600 | 33 | 204 | 0.0 | 0.0 | 0.00 | 0.00 | 0.00 | 81 | 1019.3 |
| 20260503034039 | 33 | 204 | 0.0 | 0.0 | 0.00 | 0.00 | 0.00 | 80 | 1019.3 |
| 20260503033525 | 33 | 204 | 0.0 | 0.0 | 0.00 | 0.00 | 0.00 | 80 | 1019.3 |
| 20260503033009 | 33 | 204 | 0.0 | 0.0 | 0.00 | 0.00 | 0.00 | 80 | 1019.3 |
| 20260503032552 | 34 | 204 | 0.0 | 0.0 | 0.00 | 0.00 | 0.00 | 80 | 1019.3 |
| 20260503032044 | 34 | 204 | 0.0 | 0.0 | 0.00 | 0.00 | 0.00 | 80 | 1019.4 |
| 20260503031526 | 34 | 204 | 0.0 | 0.0 | 0.00 | 0.00 | 0.00 | 80 | 1019.3 |
| 20260503031008 | 34 | 204 | 0.0 | 0.0 | 0.00 | 0.00 | 0.00 | 79 | 1019.4 |
| 20260503030558 | 34 | 204 | 0.0 | 0.0 | 0.00 | 0.00 | 0.00 | 80 | 1019.4 |
| 20260503030050 | 34 | 204 | 0.0 | 0.0 | 0.00 | 0.00 | 0.00 | 79 | 1019.3 |
| 20260503025521 | 34 | 205 | 0.0 | 0.0 | 0.00 | 0.00 | 0.00 | 78 | 1019.3 |
| 20260503025005 | 35 | 204 | 0.0 | 0.0 | 0.00 | 0.00 | 0.00 | 78 | 1019.3 |
| 20260503024558 | 35 | 205 | 0.0 | 0.0 | 0.00 | 0.00 | 0.00 | 78 | 1019.3 |
| 20260503024047 | 35 | 204 | 0.0 | 0.0 | 0.00 | 0.00 | 0.00 | 77 | 1019.4 |
| 20260503023534 | 35 | 204 | 0.0 | 0.0 | 0.00 | 0.00 | 0.00 | 77 | 1019.3 |
| 20260503023022 | 35 | 204 | 0.0 | 0.0 | 0.00 | 0.00 | 0.00 | 76 | 1019.4 |
| 20260503022504 | 35 | 204 | 0.0 | 0.0 | 0.00 | 0.00 | 0.00 | 75 | 1019.3 |
| 20260503022055 | 36 | 204 | 0.0 | 0.0 | 0.00 | 0.00 | 0.00 | 74 | 1019.2 |
| 20260503021536 | 36 | 204 | 0.0 | 0.0 | 0.00 | 0.00 | 0.00 | 74 | 1019.2 |
| 20260503021018 | 36 | 203 | 0.0 | 0.0 | 0.00 | 0.00 | 0.00 | 73 | 1019.1 |
| 20260503020508 | 37 | 204 | 0.0 | 0.0 | 0.00 | 0.00 | 0.00 | 72 | 1019.1 |
| 20260503020100 | 37 | 204 | 0.0 | 0.0 | 0.00 | 0.00 | 0.00 | 71 | 1019.1 |
| 20260503015535 | 37 | 205 | 0.0 | 0.0 | 0.00 | 0.00 | 0.00 | 70 | 1019.0 |
| 20260503015026 | 38 | 205 | 0.0 | 0.0 | 0.00 | 0.00 | 0.00 | 68 | 1019.0 |
| 20260503014506 | 38 | 205 | 0.0 | 0.0 | 0.00 | 0.00 | 0.00 | 68 | 1018.9 |
| 20260503014056 | 38 | 205 | 0.0 | 0.0 | 0.00 | 0.00 | 0.00 | 67 | 1018.9 |
| 20260503013546 | 39 | 205 | 0.0 | 0.0 | 0.00 | 0.00 | 0.00 | 66 | 1018.8 |
| 20260503013036 | 39 | 206 | 0.0 | 0.0 | 0.00 | 0.00 | 0.00 | 65 | 1018.8 |
| 20260503012527 | 40 | 205 | 0.0 | 0.0 | 0.00 | 0.00 | 0.00 | 65 | 1018.7 |
| 20260503012007 | 40 | 206 | 0.0 | 0.0 | 0.00 | 0.00 | 0.00 | 64 | 1018.6 |
| 20260503011554 | 41 | 206 | 0.0 | 0.0 | 0.00 | 0.00 | 0.00 | 64 | 1018.6 |
| 20260503011046 | 41 | 205 | 0.0 | 0.0 | 0.00 | 0.00 | 0.00 | 64 | 1018.6 |
| 20260503010536 | 42 | 205 | 0.0 | 0.0 | 0.00 | 0.00 | 0.00 | 63 | 1018.5 |
| 20260503010004 | 42 | 205 | 0.0 | 0.0 | 0.00 | 0.00 | 0.00 | 64 | 1018.4 |
| 20260503005554 | 43 | 206 | 0.0 | 0.0 | 0.00 | 0.00 | 0.00 | 63 | 1018.4 |
| 20260503005038 | 43 | 205 | 0.0 | 0.0 | 0.00 | 0.00 | 0.00 | 63 | 1018.4 |
| 20260503004533 | 43 | 205 | 0.0 | 0.0 | 0.00 | 0.00 | 0.00 | 60 | 1018.4 |
| 20260503004026 | 44 | 205 | 0.0 | 0.0 | 0.00 | 0.00 | 0.00 | 61 | 1018.3 |
| 20260503003514 | 44 | 206 | 0.0 | 1.7 | 0.00 | 0.00 | 0.00 | 62 | 1018.3 |
| 20260503003107 | 45 | 204 | 0.0 | 1.7 | 0.00 | 0.00 | 0.00 | 56 | 1018.2 |
| 20260503002548 | 45 | 335 | 0.0 | 0.9 | 0.00 | 0.00 | 0.00 | 58 | 1018.3 |
| 20260503002040 | 45 | 305 | 0.0 | 2.6 | 0.00 | 0.00 | 0.00 | 57 | 1018.1 |
| 20260503001546 | 46 | 321 | 0.0 | 2.6 | 0.00 | 0.00 | 0.00 | 56 | 1018.1 |
| 20260503001013 | 46 | 220 | 0.0 | 0.9 | 0.00 | 0.00 | 0.00 | 55 | 1018.0 |
| 20260503000600 | 47 | 320 | 0.0 | 1.7 | 0.00 | 0.00 | 0.00 | 51 | 1017.9 |
| 20260503000052 | 47 | 163 | 0.0 | 3.5 | 0.00 | 0.00 | 0.00 | 51 | 1017.9 |
| 20260502235520 | 47 | 323 | 0.0 | 3.5 | 0.00 | 0.00 | 0.00 | 49 | 1017.8 |
| 20260502235004 | 48 | 160 | 0.0 | 2.6 | 0.00 | 0.00 | 0.00 | 49 | 1017.8 |
| 20260502234552 | 48 | 114 | 0.0 | 0.9 | 0.00 | 0.00 | 0.00 | 48 | 1017.8 |
| 20260502234042 | 48 | 251 | 0.0 | 2.6 | 0.00 | 0.00 | 0.00 | 47 | 1017.7 |
| 20260502233528 | 49 | 295 | 0.0 | 2.6 | 0.00 | 0.00 | 0.00 | 47 | 1017.7 |
| 20260502233020 | 49 | 325 | 0.0 | 1.7 | 0.00 | 0.00 | 0.00 | 46 | 1017.6 |
| 20260502232627 | 49 | 197 | 0.0 | 1.7 | 0.00 | 0.00 | 0.00 | 45 | 1017.7 |
| 20260502232056 | 49 | 48 | 0.0 | 1.7 | 0.00 | 0.00 | 0.00 | 45 | 1017.6 |
| 20260502231550 | 49 | 152 | 0.0 | 1.7 | 0.00 | 0.00 | 0.00 | 45 | 1017.6 |
| 20260502231031 | 49 | 308 | 0.0 | 1.7 | 0.00 | 0.00 | 0.00 | 49 | 1017.7 |
| 20260502230519 | 49 | 240 | 0.0 | 2.6 | 0.00 | 0.00 | 0.00 | 50 | 1017.6 |
| 20260502230112 | 49 | 316 | 0.0 | 2.6 | 0.00 | 0.00 | 0.00 | 43 | 1017.6 |
| 20260502225550 | 50 | 208 | 0.0 | 0.9 | 0.00 | 0.00 | 0.00 | 46 | 1017.5 |
| 20260502225040 | 50 | 311 | 0.0 | 3.5 | 0.00 | 0.00 | 0.00 | 41 | 1017.5 |
| 20260502224526 | 50 | 311 | 0.0 | 3.5 | 0.00 | 0.00 | 0.00 | 39 | 1017.5 |
| 20260502224010 | 51 | 318 | 0.0 | 3.5 | 0.00 | 0.00 | 0.00 | 40 | 1017.5 |
| 20260502223556 | 51 | 145 | 0.0 | 2.6 | 0.00 | 0.00 | 0.00 | 42 | 1017.4 |
| 20260502223046 | 51 | 96 | 0.0 | 2.6 | 0.00 | 0.00 | 0.00 | 39 | 1017.4 |
| 20260502222534 | 52 | 235 | 0.0 | 0.9 | 0.00 | 0.00 | 0.00 | 42 | 1017.4 |
| 20260502222023 | 52 | 211 | 0.0 | 1.7 | 0.00 | 0.00 | 0.00 | 41 | 1017.4 |
| 20260502221506 | 52 | 314 | 0.0 | 2.6 | 0.00 | 0.00 | 0.00 | 39 | 1017.3 |
| 20260502221053 | 52 | 325 | 0.0 | 2.6 | 0.00 | 0.00 | 0.00 | 39 | 1017.3 |
| 20260502220542 | 52 | 165 | 0.0 | 0.9 | 0.00 | 0.00 | 0.00 | 38 | 1017.2 |
| 20260502220036 | 52 | 345 | 0.0 | 2.6 | 0.00 | 0.00 | 0.00 | 36 | 1017.3 |
| 20260502215603 | 52 | 5 | 0.0 | 2.6 | 0.00 | 0.00 | 0.00 | 35 | 1017.3 |
| 20260502215052 | 53 | 71 | 0.0 | 2.6 | 0.00 | 0.00 | 0.00 | 40 | 1017.2 |
| 20260502214548 | 53 | 304 | 0.0 | 3.5 | 0.00 | 0.00 | 0.00 | 36 | 1017.2 |
| 20260502214032 | 54 | 176 | 0.0 | 3.5 | 0.00 | 0.00 | 0.00 | 37 | 1017.1 |
| 20260502213516 | 54 | 339 | 0.9 | 4.3 | 0.00 | 0.00 | 0.00 | 35 | 1017.0 |
| 20260502213100 | 54 | 345 | 0.9 | 4.3 | 0.00 | 0.00 | 0.00 | 33 | 1017.0 |
| 20260502212546 | 54 | 212 | 0.0 | 3.5 | 0.00 | 0.00 | 0.00 | 36 | 1017.0 |
| 20260502212037 | 54 | 288 | 0.9 | 5.2 | 0.00 | 0.00 | 0.00 | 34 | 1017.0 |
| 20260502211526 | 54 | 271 | 0.0 | 5.2 | 0.00 | 0.00 | 0.00 | 33 | 1017.1 |
| 20260502211014 | 54 | 97 | 0.0 | 2.6 | 0.00 | 0.00 | 0.00 | 33 | 1017.0 |
| 20260502210550 | 55 | 319 | 0.9 | 2.6 | 0.00 | 0.00 | 0.00 | 34 | 1017.0 |
| 20260502210018 | 56 | 259 | 0.0 | 1.7 | 0.00 | 0.00 | 0.00 | 34 | 1017.0 |
| 20260502205605 | 55 | 132 | 0.0 | 0.9 | 0.00 | 0.00 | 0.00 | 34 | 1017.0 |
| 20260502205053 | 56 | 321 | 0.0 | 2.6 | 0.00 | 0.00 | 0.00 | 34 | 1017.0 |
| 20260502204545 | 56 | 319 | 0.0 | 4.3 | 0.00 | 0.00 | 0.00 | 33 | 1017.0 |
| 20260502204026 | 55 | 314 | 0.0 | 4.3 | 0.00 | 0.00 | 0.00 | 34 | 1017.0 |
| 20260502203507 | 55 | 332 | 0.9 | 3.5 | 0.00 | 0.00 | 0.00 | 37 | 1017.1 |
| 20260502203057 | 54 | 310 | 0.0 | 3.5 | 0.00 | 0.00 | 0.00 | 36 | 1017.1 |
| 20260502202546 | 54 | 155 | 0.0 | 2.6 | 0.00 | 0.00 | 0.00 | 36 | 1017.1 |
| 20260502202035 | 55 | 191 | 0.0 | 2.6 | 0.00 | 0.00 | 0.00 | 35 | 1017.1 |
| 20260502201525 | 56 | 15 | 0.0 | 3.5 | 0.00 | 0.00 | 0.00 | 31 | 1017.2 |
| 20260502201002 | 57 | 125 | 0.0 | 3.5 | 0.00 | 0.00 | 0.00 | 32 | 1017.3 |
| 20260502200554 | 57 | 207 | 0.0 | 3.5 | 0.00 | 0.00 | 0.00 | 33 | 1017.2 |
| 20260502200045 | 56 | 319 | 0.0 | 2.6 | 0.00 | 0.00 | 0.00 | 32 | 1017.3 |
| 20260502195510 | 56 | 212 | 0.0 | 4.3 | 0.00 | 0.00 | 0.00 | 33 | 1017.3 |
| 20260502195058 | 57 | 84 | 0.0 | 4.3 | 0.00 | 0.00 | 0.00 | 34 | 1017.3 |
| 20260502194546 | 57 | 341 | 0.0 | 2.6 | 0.00 | 0.00 | 0.00 | 34 | 1017.4 |
| 20260502194035 | 57 | 304 | 0.9 | 3.5 | 0.00 | 0.00 | 0.00 | 33 | 1017.4 |
| 20260502193517 | 57 | 283 | 0.0 | 3.5 | 0.00 | 0.00 | 0.00 | 36 | 1017.4 |
| 20260502193007 | 57 | 316 | 0.0 | 3.5 | 0.00 | 0.00 | 0.00 | 33 | 1017.4 |
| 20260502192559 | 57 | 216 | 0.0 | 4.3 | 0.00 | 0.00 | 0.00 | 34 | 1017.4 |
| 20260502192046 | 57 | 333 | 0.0 | 4.3 | 0.00 | 0.00 | 0.00 | 31 | 1017.5 |
| 20260502191535 | 58 | 226 | 0.0 | 3.5 | 0.00 | 0.00 | 0.00 | 35 | 1017.4 |
| 20260502191018 | 57 | 323 | 0.0 | 5.2 | 0.00 | 0.00 | 0.00 | 34 | 1017.4 |
| 20260502190513 | 57 | 323 | 0.0 | 5.2 | 0.00 | 0.00 | 0.00 | 34 | 1017.5 |
| 20260502185541 | 58 | 68 | 1.7 | 3.5 | 0.00 | 0.00 | 0.00 | 33 | 1017.6 |